CYYJ/YYJ METAR and TAF weather

Enter ICAO airport designator
Station Type Date Time Source
CYYJ METAR 2022/06/26 07:00 UTC NOAA

CYYJ 260700Z 28004KT 30SM FEW250 19/11 A3009 RMK CI1 CI TR SLP192 DENSITY ALT 400FT


Station Type Date Time Source
CYYJ Decoded METAR 2022/06/26 07:00 UTC NOAA

Victoria Int. Airport, B. C., Canada (CYYJ) 48-39N 123-26W 19M
Jun 26, 2022 - 03:00 AM EDT / 2022.06.26 0700 UTC
Wind: from the W (280 degrees) at 5 MPH (4 KT):0
Visibility: 30 mile(s):0
Sky conditions: mostly clear
Temperature: 66 F (19 C)
Dew Point: 51 F (11 C)
Relative Humidity: 59%
Pressure (altimeter): 30.09 in. Hg (1018 hPa)
ob: CYYJ 260700Z 28004KT 30SM FEW250 19/11 A3009 RMK CI1 CI TR SLP192 DENSITY ALT 400FT
cycle: 7

Station Type Date Time Source
CYYJ TAF 2022/06/26 06:44 UTC NOAA

TAF CYYJ 260540Z 2606/2706 05008KT P6SM SCT240
BECMG 2608/2610 32008KT
BECMG 2616/2618 02006KT
RMK NXT FCST BY 261200Z

Example: see airport list